Time,TemperatureF,DewpointF,PressureIn,WindDirection,WindDirectionDegrees,WindSpeedMPH,WindSpeedGustMPH,Humidity,HourlyPrecipIn,Conditions,Clouds,dailyrainin,SolarRadiationWatts/m^2,SoftwareType,DateUTC
2015-02-27 00:03:00,51.7,48.0,29.85,East,100,0.0,3.0,87,0.00,,,0.00,0,Wunderground v.1.15,2015-02-27 08:03:00,
2015-02-27 00:08:00,51.7,48.0,29.85,ESE,104,1.0,3.0,87,0.00,,,0.00,0,Wunderground v.1.15,2015-02-27 08:08:00,
2015-02-27 00:14:00,51.7,48.0,29.86,ESE,106,0.0,2.0,87,0.00,,,0.00,0,Wunderground v.1.15,2015-02-27 08:14:00,
2015-02-27 00:20:00,51.7,48.3,29.85,ESE,120,1.0,1.0,88,0.00,,,0.00,0,Wunderground v.1.15,2015-02-27 08:20:00,
2015-02-27 00:26:00,51.6,48.2,29.85,ESE,103,2.0,3.0,88,0.00,,,0.00,0,Wunderground v.1.15,2015-02-27 08:26:00,
2015-02-27 00:32:00,51.4,48.0,29.85,NE,53,0.0,1.0,88,0.00,,,0.00,0,Wunderground v.1.15,2015-02-27 08:32:00,
2015-02-27 00:37:00,51.4,48.0,29.86,NE,53,0.0,1.0,88,0.00,,,0.00,0,Wunderground v.1.15,2015-02-27 08:37:00,
2015-02-27 00:43:00,51.3,47.9,29.85,East,79,1.0,1.0,88,0.00,,,0.00,0,Wunderground v.1.15,2015-02-27 08:43:00,
2015-02-27 00:48:00,51.4,48.0,29.86,East,80,0.0,1.0,88,0.00,,,0.00,0,Wunderground v.1.15,2015-02-27 08:48:00,
2015-02-27 00:54:00,51.7,48.0,29.85,East,81,2.0,2.0,87,0.00,,,0.00,0,Wunderground v.1.15,2015-02-27 08:54:00,
2015-02-27 01:00:00,51.7,48.3,29.85,WNW,303,0.0,2.0,88,0.00,,,0.00,0,Wunderground v.1.15,2015-02-27 09:00:00,
2015-02-27 01:07:00,51.6,48.2,29.85,WNW,303,0.0,2.0,88,0.00,,,0.00,0,Wunderground v.1.15,2015-02-27 09:07:00,
2015-02-27 01:12:00,51.5,48.1,29.85,WNW,303,0.0,0.0,88,0.00,,,0.00,0,Wunderground v.1.15,2015-02-27 09:12:00,
2015-02-27 01:18:00,51.3,47.9,29.85,WNW,303,0.0,0.0,88,0.00,,,0.00,0,Wunderground v.1.15,2015-02-27 09:18:00,
2015-02-27 01:23:00,51.1,48.0,29.85,SSE,166,1.0,2.0,89,0.00,,,0.00,0,Wunderground v.1.15,2015-02-27 09:23:00,
2015-02-27 01:29:00,51.1,47.7,29.85,SE,133,0.0,0.0,88,0.00,,,0.00,0,Wunderground v.1.15,2015-02-27 09:29:00,
2015-02-27 01:34:00,51.2,47.8,29.85,SE,132,1.0,1.0,88,0.00,,,0.00,0,Wunderground v.1.15,2015-02-27 09:34:00,
2015-02-27 01:39:00,51.4,48.0,29.85,ESE,119,0.0,0.0,88,0.00,,,0.00,0,Wunderground v.1.15,2015-02-27 09:39:00,
2015-02-27 01:44:00,51.5,47.8,29.85,ESE,119,0.0,0.0,87,0.00,,,0.00,0,Wunderground v.1.15,2015-02-27 09:44:00,
2015-02-27 01:50:00,51.6,47.9,29.86,ESE,119,0.0,0.0,87,0.00,,,0.00,0,Wunderground v.1.15,2015-02-27 09:50:00,
2015-02-27 01:56:00,51.4,48.0,29.85,SE,124,1.0,1.0,88,0.00,,,0.00,0,Wunderground v.1.15,2015-02-27 09:56:00,
2015-02-27 02:01:00,51.4,48.0,29.85,ESE,114,0.0,4.0,88,0.00,,,0.00,0,Wunderground v.1.15,2015-02-27 10:01:00,
2015-02-27 02:07:00,51.3,47.9,29.85,ESE,109,2.0,4.0,88,0.00,,,0.00,0,Wunderground v.1.15,2015-02-27 10:07:00,
2015-02-27 02:12:00,51.3,47.9,29.84,SE,137,2.0,2.0,88,0.00,,,0.00,0,Wunderground v.1.15,2015-02-27 10:12:00,
2015-02-27 02:17:00,51.3,47.9,29.84,ESE,113,0.0,2.0,88,0.00,,,0.00,0,Wunderground v.1.15,2015-02-27 10:17:00,
2015-02-27 02:23:00,51.3,48.2,29.84,ESE,114,4.0,4.0,89,0.00,,,0.00,0,Wunderground v.1.15,2015-02-27 10:23:00,
2015-02-27 02:29:00,51.3,48.2,29.84,ESE,112,0.0,0.0,89,0.00,,,0.00,0,Wunderground v.1.15,2015-02-27 10:29:00,
2015-02-27 02:34:00,51.2,48.1,29.84,ESE,111,2.0,2.0,89,0.00,,,0.00,0,Wunderground v.1.15,2015-02-27 10:34:00,
2015-02-27 02:40:00,51.2,48.4,29.83,ESE,112,4.0,4.0,90,0.00,,,0.00,0,Wunderground v.1.15,2015-02-27 10:40:00,
2015-02-27 02:46:00,51.2,48.1,29.83,SE,135,3.0,4.0,89,0.00,,,0.00,0,Wunderground v.1.15,2015-02-27 10:46:00,
2015-02-27 02:52:00,51.1,48.0,29.82,ESE,117,6.0,6.0,89,0.00,,,0.00,0,Wunderground v.1.15,2015-02-27 10:52:00,
2015-02-27 02:58:00,51.1,48.3,29.82,SE,128,2.0,6.0,90,0.00,,,0.00,0,Wunderground v.1.15,2015-02-27 10:58:00,
2015-02-27 03:03:00,51.1,48.3,29.82,SE,127,4.0,4.0,90,0.00,,,0.00,0,Wunderground v.1.15,2015-02-27 11:03:00,
2015-02-27 03:09:00,50.9,47.8,29.82,SE,125,2.0,2.0,89,0.00,,,0.00,0,Wunderground v.1.15,2015-02-27 11:09:00,
2015-02-27 03:15:00,50.7,47.9,29.82,SE,126,1.0,5.0,90,0.00,,,0.00,0,Wunderground v.1.15,2015-02-27 11:15:00,
2015-02-27 03:21:00,50.6,47.8,29.82,ESE,106,1.0,1.0,90,0.00,,,0.00,0,Wunderground v.1.15,2015-02-27 11:21:00,
2015-02-27 03:27:00,50.5,48.0,29.82,ESE,103,0.0,2.0,91,0.00,,,0.00,0,Wunderground v.1.15,2015-02-27 11:27:00,
2015-02-27 03:32:00,50.5,48.0,29.82,SE,133,1.0,2.0,91,0.00,,,0.00,0,Wunderground v.1.15,2015-02-27 11:32:00,
2015-02-27 03:37:00,50.4,47.9,29.82,ESE,110,1.0,2.0,91,0.00,,,0.00,0,Wunderground v.1.15,2015-02-27 11:37:00,
2015-02-27 03:42:00,50.2,47.4,29.82,ESE,116,0.0,1.0,90,0.00,,,0.00,0,Wunderground v.1.15,2015-02-27 11:42:00,
2015-02-27 03:47:00,49.8,47.6,29.82,ESE,119,0.0,1.0,92,0.00,,,0.00,0,Wunderground v.1.15,2015-02-27 11:47:00,
2015-02-27 03:52:00,49.8,47.9,29.82,ESE,109,0.0,0.0,93,0.00,,,0.00,0,Wunderground v.1.15,2015-02-27 11:52:00,
2015-02-27 03:58:00,49.7,47.5,29.82,ESE,110,0.0,0.0,92,0.00,,,0.00,0,Wunderground v.1.15,2015-02-27 11:58:00,
2015-02-27 04:03:00,49.4,47.5,29.82,ESE,109,0.0,7.0,93,0.00,,,0.00,0,Wunderground v.1.15,2015-02-27 12:03:00,
2015-02-27 04:08:00,49.3,47.4,29.82,ESE,109,0.0,7.0,93,0.00,,,0.00,0,Wunderground v.1.15,2015-02-27 12:08:00,
2015-02-27 04:14:00,49.3,47.6,29.82,ESE,110,0.0,0.0,94,0.00,,,0.00,0,Wunderground v.1.15,2015-02-27 12:14:00,
2015-02-27 04:20:00,49.3,47.6,29.83,ESE,109,0.0,0.0,94,0.00,,,0.00,0,Wunderground v.1.15,2015-02-27 12:20:00,
2015-02-27 04:26:00,49.2,47.3,29.82,ESE,109,0.0,0.0,93,0.00,,,0.00,0,Wunderground v.1.15,2015-02-27 12:26:00,
2015-02-27 04:32:00,49.1,47.4,29.82,ESE,109,0.0,0.0,94,0.00,,,0.00,0,Wunderground v.1.15,2015-02-27 12:32:00,
2015-02-27 04:37:00,48.8,47.2,29.83,SE,128,1.0,1.0,94,0.00,,,0.00,0,Wunderground v.1.15,2015-02-27 12:37:00,
2015-02-27 04:43:00,48.7,47.1,29.83,SE,127,1.0,1.0,94,0.00,,,0.00,0,Wunderground v.1.15,2015-02-27 12:43:00,
2015-02-27 04:49:00,48.5,47.1,29.82,SE,127,2.0,2.0,95,0.00,,,0.00,0,Wunderground v.1.15,2015-02-27 12:49:00,
2015-02-27 04:55:00,48.4,47.0,29.83,SE,142,0.0,2.0,95,0.00,,,0.00,0,Wunderground v.1.15,2015-02-27 12:55:00,
2015-02-27 05:01:00,48.4,47.3,29.82,SE,132,0.0,4.0,96,0.00,,,0.00,0,Wunderground v.1.15,2015-02-27 13:01:00,
2015-02-27 05:07:00,48.1,46.7,29.82,ESE,112,0.0,4.0,95,0.00,,,0.00,0,Wunderground v.1.15,2015-02-27 13:07:00,
2015-02-27 05:12:00,47.9,46.8,29.82,ESE,113,0.0,2.0,96,0.00,,,0.00,0,Wunderground v.1.15,2015-02-27 13:12:00,
2015-02-27 05:18:00,48.2,47.7,29.83,ESE,106,0.0,2.0,98,0.00,,,0.00,0,Wunderground v.1.15,2015-02-27 13:18:00,
2015-02-27 05:24:00,48.3,47.5,29.83,ESE,102,1.0,3.0,97,0.00,,,0.00,0,Wunderground v.1.15,2015-02-27 13:24:00,
2015-02-27 05:29:00,48.1,47.3,29.83,ESE,105,2.0,2.0,97,0.00,,,0.00,0,Wunderground v.1.15,2015-02-27 13:29:00,
2015-02-27 05:35:00,47.6,46.5,29.83,ESE,107,4.0,4.0,96,0.00,,,0.00,0,Wunderground v.1.15,2015-02-27 13:35:00,
2015-02-27 05:40:00,47.3,46.5,29.83,ESE,112,1.0,2.0,97,0.00,,,0.00,0,Wunderground v.1.15,2015-02-27 13:40:00,
2015-02-27 05:45:00,47.3,46.8,29.84,ESE,119,1.0,3.0,98,0.00,,,0.00,0,Wunderground v.1.15,2015-02-27 13:45:00,
2015-02-27 05:51:00,47.4,47.1,29.83,ESE,118,3.0,3.0,99,0.00,,,0.00,0,Wunderground v.1.15,2015-02-27 13:51:00,
2015-02-27 05:56:00,47.5,47.2,29.83,ESE,108,0.0,3.0,99,0.00,,,0.00,0,Wunderground v.1.15,2015-02-27 13:56:00,
2015-02-27 06:02:00,47.5,47.0,29.83,SE,137,1.0,4.0,98,0.00,,,0.00,0,Wunderground v.1.15,2015-02-27 14:02:00,
2015-02-27 06:07:00,47.4,46.9,29.84,ESE,116,1.0,4.0,98,0.00,,,0.00,0,Wunderground v.1.15,2015-02-27 14:07:00,
2015-02-27 06:13:00,47.2,46.7,29.83,ESE,119,1.0,3.0,98,0.00,,,0.00,0,Wunderground v.1.15,2015-02-27 14:13:00,
2015-02-27 06:18:00,47.1,46.6,29.83,SE,141,1.0,3.0,98,0.00,,,0.00,0,Wunderground v.1.15,2015-02-27 14:18:00,
2015-02-27 06:23:00,47.1,46.8,29.83,ESE,119,2.0,6.0,99,0.00,,,0.00,0,Wunderground v.1.15,2015-02-27 14:23:00,
2015-02-27 06:29:00,47.1,46.6,29.83,SE,134,2.0,2.0,98,0.00,,,0.00,0,Wunderground v.1.15,2015-02-27 14:29:00,
2015-02-27 06:35:00,47.0,46.5,29.83,ESE,119,2.0,4.0,98,0.00,,,0.00,0,Wunderground v.1.15,2015-02-27 14:35:00,
2015-02-27 06:41:00,47.1,46.6,29.83,ESE,112,4.0,4.0,98,0.00,,,0.00,0,Wunderground v.1.15,2015-02-27 14:41:00,
2015-02-27 06:47:00,47.2,46.7,29.83,SE,146,0.0,4.0,98,0.00,,,0.00,0,Wunderground v.1.15,2015-02-27 14:47:00,
2015-02-27 06:53:00,47.2,46.7,29.83,ESE,112,0.0,3.0,98,0.00,,,0.00,0,Wunderground v.1.15,2015-02-27 14:53:00,
2015-02-27 06:59:00,47.2,46.9,29.83,SE,125,0.0,0.0,99,0.00,,,0.00,0,Wunderground v.1.15,2015-02-27 14:59:00,
2015-02-27 07:07:00,47.2,47.2,29.83,ESE,115,2.0,4.0,100,0.00,,,0.00,0,Wunderground v.1.15,2015-02-27 15:07:00,
2015-02-27 07:12:00,47.5,47.5,29.83,SE,127,3.0,4.0,100,0.00,,,0.00,0,Wunderground v.1.15,2015-02-27 15:12:00,
2015-02-27 07:17:00,47.7,47.7,29.83,SE,130,4.0,7.0,100,0.00,,,0.00,0,Wunderground v.1.15,2015-02-27 15:17:00,
2015-02-27 07:23:00,48.1,48.1,29.83,SE,128,1.0,3.0,100,0.00,,,0.00,0,Wunderground v.1.15,2015-02-27 15:23:00,
2015-02-27 07:28:00,48.3,48.0,29.84,ESE,113,2.0,3.0,99,0.00,,,0.00,0,Wunderground v.1.15,2015-02-27 15:28:00,
2015-02-27 07:34:00,48.9,48.6,29.84,ESE,113,7.0,7.0,99,0.00,,,0.00,0,Wunderground v.1.15,2015-02-27 15:34:00,
2015-02-27 07:39:00,49.3,48.8,29.84,ESE,111,5.0,5.0,98,0.00,,,0.00,0,Wunderground v.1.15,2015-02-27 15:39:00,
2015-02-27 07:44:00,49.7,48.9,29.84,ESE,109,7.0,7.0,97,0.00,,,0.00,0,Wunderground v.1.15,2015-02-27 15:44:00,
2015-02-27 07:50:00,50.2,49.4,29.84,SE,125,0.0,6.0,97,0.00,,,0.00,0,Wunderground v.1.15,2015-02-27 15:50:00,
2015-02-27 07:56:00,50.6,49.8,29.84,ESE,110,5.0,6.0,97,0.00,,,0.00,0,Wunderground v.1.15,2015-02-27 15:56:00,
2015-02-27 08:02:00,51.0,49.9,29.83,SE,125,3.0,7.0,96,0.00,,,0.00,0,Wunderground v.1.15,2015-02-27 16:02:00,
2015-02-27 08:07:00,51.5,50.4,29.84,SE,125,4.0,7.0,96,0.00,,,0.00,0,Wunderground v.1.15,2015-02-27 16:07:00,
2015-02-27 08:13:00,51.9,50.8,29.84,ESE,120,5.0,5.0,96,0.00,,,0.00,0,Wunderground v.1.15,2015-02-27 16:13:00,
2015-02-27 08:19:00,52.4,51.0,29.84,ESE,115,5.0,5.0,95,0.00,,,0.00,0,Wunderground v.1.15,2015-02-27 16:19:00,
2015-02-27 08:25:00,52.9,51.2,29.84,ESE,118,8.0,8.0,94,0.00,,,0.00,0,Wunderground v.1.15,2015-02-27 16:25:00,
2015-02-27 08:30:00,53.4,51.7,29.84,ESE,120,2.0,2.0,94,0.00,,,0.00,0,Wunderground v.1.15,2015-02-27 16:30:00,
2015-02-27 08:36:00,54.0,51.7,29.84,ESE,111,3.0,7.0,92,0.00,,,0.00,0,Wunderground v.1.15,2015-02-27 16:36:00,
2015-02-27 08:41:00,54.5,52.2,29.84,ESE,112,2.0,2.0,92,0.00,,,0.00,0,Wunderground v.1.15,2015-02-27 16:41:00,
2015-02-27 08:46:00,54.9,52.3,29.84,ESE,123,6.0,6.0,91,0.00,,,0.00,0,Wunderground v.1.15,2015-02-27 16:46:00,
2015-02-27 08:51:00,55.3,52.1,29.84,ESE,118,5.0,5.0,89,0.00,,,0.00,0,Wunderground v.1.15,2015-02-27 16:51:00,
2015-02-27 08:57:00,55.6,52.4,29.84,ESE,110,8.0,8.0,89,0.00,,,0.00,0,Wunderground v.1.15,2015-02-27 16:57:00,
2015-02-27 09:03:00,56.0,53.1,29.84,ESE,111,0.0,8.0,90,0.00,,,0.00,0,Wunderground v.1.15,2015-02-27 17:03:00,
2015-02-27 09:09:00,56.3,53.4,29.84,SE,125,5.0,5.0,90,0.00,,,0.00,0,Wunderground v.1.15,2015-02-27 17:09:00,
2015-02-27 09:15:00,56.8,53.0,29.84,SE,136,2.0,5.0,87,0.00,,,0.00,0,Wunderground v.1.15,2015-02-27 17:15:00,
2015-02-27 09:20:00,57.1,53.3,29.84,SE,137,3.0,5.0,87,0.00,,,0.00,0,Wunderground v.1.15,2015-02-27 17:20:00,
2015-02-27 09:25:00,57.2,53.0,29.84,ESE,110,2.0,6.0,86,0.00,,,0.00,0,Wunderground v.1.15,2015-02-27 17:25:00,
2015-02-27 09:30:00,57.4,53.9,29.84,SSE,148,1.0,3.0,88,0.00,,,0.00,0,Wunderground v.1.15,2015-02-27 17:30:00,
2015-02-27 09:35:00,57.7,53.2,29.84,ESE,122,6.0,6.0,85,0.00,,,0.00,0,Wunderground v.1.15,2015-02-27 17:35:00,
2015-02-27 09:41:00,57.8,53.6,29.84,SE,127,2.0,5.0,86,0.00,,,0.00,0,Wunderground v.1.15,2015-02-27 17:41:00,
2015-02-27 09:46:00,58.1,53.9,29.83,SSE,151,6.0,7.0,86,0.00,,,0.00,0,Wunderground v.1.15,2015-02-27 17:46:00,
2015-02-27 09:52:00,58.5,53.7,29.83,ESE,121,0.0,5.0,84,0.00,,,0.00,0,Wunderground v.1.15,2015-02-27 17:52:00,
2015-02-27 09:58:00,58.6,53.5,29.83,ESE,113,4.0,7.0,83,0.00,,,0.00,0,Wunderground v.1.15,2015-02-27 17:58:00,
2015-02-27 10:07:00,59.2,53.7,29.83,SE,142,3.0,10.0,82,0.00,,,0.00,0,Wunderground v.1.15,2015-02-27 18:07:00,
2015-02-27 10:12:00,59.5,54.3,29.83,South,171,0.0,3.0,83,0.00,,,0.00,0,Wunderground v.1.15,2015-02-27 18:12:00,
2015-02-27 10:17:00,59.9,55.1,29.83,SSE,162,1.0,3.0,84,0.00,,,0.00,0,Wunderground v.1.15,2015-02-27 18:17:00,
2015-02-27 10:23:00,60.2,55.0,29.82,SSE,160,1.0,3.0,83,0.00,,,0.00,0,Wunderground v.1.15,2015-02-27 18:23:00,
2015-02-27 10:29:00,60.7,55.5,29.82,SSE,148,0.0,0.0,83,0.00,,,0.00,0,Wunderground v.1.15,2015-02-27 18:29:00,
2015-02-27 10:35:00,61.0,54.4,29.82,SSE,152,4.0,4.0,79,0.00,,,0.00,0,Wunderground v.1.15,2015-02-27 18:35:00,
2015-02-27 10:41:00,61.1,53.5,29.83,SE,130,0.0,4.0,76,0.00,,,0.00,0,Wunderground v.1.15,2015-02-27 18:41:00,
2015-02-27 10:46:00,61.3,55.8,29.82,SSW,207,1.0,4.0,82,0.00,,,0.00,0,Wunderground v.1.15,2015-02-27 18:46:00,
2015-02-27 10:52:00,61.8,55.9,29.82,SW,228,0.0,6.0,81,0.00,,,0.00,0,Wunderground v.1.15,2015-02-27 18:52:00,
2015-02-27 10:58:00,62.1,55.5,29.82,SW,229,3.0,6.0,79,0.00,,,0.00,0,Wunderground v.1.15,2015-02-27 18:58:00,
2015-02-27 11:07:00,62.6,55.6,29.82,SSW,204,2.0,10.0,78,0.00,,,0.00,0,Wunderground v.1.15,2015-02-27 19:07:00,
2015-02-27 11:12:00,62.7,55.7,29.81,SW,226,1.0,3.0,78,0.00,,,0.00,0,Wunderground v.1.15,2015-02-27 19:12:00,
2015-02-27 11:18:00,63.1,56.1,29.81,SSW,211,3.0,3.0,78,0.00,,,0.00,0,Wunderground v.1.15,2015-02-27 19:18:00,
2015-02-27 11:24:00,63.2,54.8,29.81,SSE,159,3.0,4.0,74,0.00,,,0.00,0,Wunderground v.1.15,2015-02-27 19:24:00,
2015-02-27 11:30:00,63.4,55.7,29.81,SSW,203,0.0,0.0,76,0.00,,,0.00,0,Wunderground v.1.15,2015-02-27 19:30:00,
2015-02-27 11:36:00,63.7,55.3,29.80,SE,145,4.0,4.0,74,0.00,,,0.00,0,Wunderground v.1.15,2015-02-27 19:36:00,
2015-02-27 11:42:00,63.7,55.3,29.80,ESE,122,3.0,3.0,74,0.00,,,0.00,0,Wunderground v.1.15,2015-02-27 19:42:00,
2015-02-27 11:48:00,63.8,55.7,29.80,WSW,240,0.0,4.0,75,0.00,,,0.00,0,Wunderground v.1.15,2015-02-27 19:48:00,
2015-02-27 11:54:00,64.5,56.4,29.79,SSE,148,5.0,5.0,75,0.00,,,0.00,0,Wunderground v.1.15,2015-02-27 19:54:00,
2015-02-27 11:59:00,64.6,55.7,29.79,ESE,119,1.0,1.0,73,0.00,,,0.00,0,Wunderground v.1.15,2015-02-27 19:59:00,
2015-02-27 12:07:00,64.9,56.4,29.79,SSW,199,0.0,7.0,74,0.00,,,0.00,0,Wunderground v.1.15,2015-02-27 20:07:00,
2015-02-27 12:12:00,65.4,56.9,29.78,SW,217,0.0,2.0,74,0.00,,,0.00,0,Wunderground v.1.15,2015-02-27 20:12:00,
2015-02-27 12:18:00,65.7,56.0,29.78,SE,137,1.0,4.0,71,0.00,,,0.00,0,Wunderground v.1.15,2015-02-27 20:18:00,
2015-02-27 12:24:00,65.8,56.1,29.77,SE,132,1.0,4.0,71,0.00,,,0.00,0,Wunderground v.1.15,2015-02-27 20:24:00,
2015-02-27 12:29:00,65.3,56.4,29.77,SSE,152,3.0,3.0,73,0.00,,,0.00,0,Wunderground v.1.15,2015-02-27 20:29:00,
2015-02-27 12:35:00,65.2,56.7,29.77,SSE,158,2.0,5.0,74,0.00,,,0.00,0,Wunderground v.1.15,2015-02-27 20:35:00,
2015-02-27 12:41:00,65.5,56.2,29.76,SE,131,3.0,6.0,72,0.00,,,0.00,0,Wunderground v.1.15,2015-02-27 20:41:00,
2015-02-27 12:47:00,65.3,56.4,29.76,SSE,156,6.0,6.0,73,0.00,,,0.00,0,Wunderground v.1.15,2015-02-27 20:47:00,
2015-02-27 12:53:00,65.6,57.1,29.76,SE,129,4.0,5.0,74,0.00,,,0.00,0,Wunderground v.1.15,2015-02-27 20:53:00,
2015-02-27 12:58:00,66.0,56.7,29.75,SSW,210,2.0,5.0,72,0.00,,,0.00,0,Wunderground v.1.15,2015-02-27 20:58:00,
2015-02-27 13:07:00,66.5,56.8,29.74,SE,143,4.0,8.0,71,0.00,,,0.00,0,Wunderground v.1.15,2015-02-27 21:07:00,
2015-02-27 13:13:00,66.6,57.3,29.74,SSE,163,5.0,6.0,72,0.00,,,0.00,0,Wunderground v.1.15,2015-02-27 21:13:00,
2015-02-27 13:18:00,66.9,57.2,29.74,SE,145,4.0,6.0,71,0.00,,,0.00,0,Wunderground v.1.15,2015-02-27 21:18:00,
2015-02-27 13:23:00,67.0,57.7,29.73,SSE,148,3.0,3.0,72,0.00,,,0.00,0,Wunderground v.1.15,2015-02-27 21:23:00,
2015-02-27 13:29:00,67.1,57.4,29.73,SSE,164,3.0,3.0,71,0.00,,,0.00,0,Wunderground v.1.15,2015-02-27 21:29:00,
2015-02-27 13:35:00,66.3,56.2,29.73,South,170,0.0,3.0,70,0.00,,,0.00,0,Wunderground v.1.15,2015-02-27 21:35:00,
2015-02-27 13:41:00,66.3,57.0,29.72,SSE,154,5.0,5.0,72,0.00,,,0.00,0,Wunderground v.1.15,2015-02-27 21:41:00,
2015-02-27 13:47:00,66.4,56.7,29.72,South,185,2.0,9.0,71,0.00,,,0.00,0,Wunderground v.1.15,2015-02-27 21:47:00,
2015-02-27 13:53:00,65.9,57.4,29.72,SSW,197,3.0,5.0,74,0.00,,,0.00,0,Wunderground v.1.15,2015-02-27 21:53:00,
2015-02-27 13:59:00,66.2,56.9,29.71,SE,145,6.0,6.0,72,0.00,,,0.00,0,Wunderground v.1.15,2015-02-27 21:59:00,
2015-02-27 14:07:00,66.5,58.0,29.71,SSW,203,0.0,9.0,74,0.00,,,0.00,0,Wunderground v.1.15,2015-02-27 22:07:00,
2015-02-27 14:13:00,66.5,56.8,29.71,SSE,160,8.0,8.0,71,0.00,,,0.00,0,Wunderground v.1.15,2015-02-27 22:13:00,
2015-02-27 14:19:00,66.1,56.8,29.70,South,189,0.0,0.0,72,0.00,,,0.00,0,Wunderground v.1.15,2015-02-27 22:19:00,
2015-02-27 14:24:00,66.7,57.8,29.70,SE,145,7.0,7.0,73,0.00,,,0.00,0,Wunderground v.1.15,2015-02-27 22:24:00,
2015-02-27 14:29:00,66.9,56.8,29.70,SSW,200,2.0,2.0,70,0.00,,,0.00,0,Wunderground v.1.15,2015-02-27 22:29:00,
2015-02-27 14:34:00,66.7,56.6,29.70,South,170,1.0,9.0,70,0.00,,,0.00,0,Wunderground v.1.15,2015-02-27 22:34:00,
2015-02-27 14:39:00,66.2,56.5,29.70,SSE,156,3.0,3.0,71,0.00,,,0.00,0,Wunderground v.1.15,2015-02-27 22:39:00,
2015-02-27 14:44:00,66.3,57.0,29.69,South,173,4.0,4.0,72,0.00,,,0.00,0,Wunderground v.1.15,2015-02-27 22:44:00,
2015-02-27 14:50:00,66.6,56.1,29.69,SE,143,2.0,3.0,69,0.00,,,0.00,0,Wunderground v.1.15,2015-02-27 22:50:00,
2015-02-27 14:56:00,66.8,56.3,29.69,South,189,2.0,4.0,69,0.00,,,0.00,0,Wunderground v.1.15,2015-02-27 22:56:00,
2015-02-27 15:01:00,66.8,55.5,29.68,SSE,152,7.0,7.0,67,0.00,,,0.00,0,Wunderground v.1.15,2015-02-27 23:01:00,
2015-02-27 15:07:00,66.9,56.4,29.68,SSW,201,4.0,13.0,69,0.00,,,0.00,0,Wunderground v.1.15,2015-02-27 23:07:00,
2015-02-27 15:13:00,66.8,55.9,29.68,South,170,4.0,5.0,68,0.00,,,0.00,0,Wunderground v.1.15,2015-02-27 23:13:00,
2015-02-27 15:18:00,66.6,55.7,29.68,SE,131,3.0,5.0,68,0.00,,,0.00,0,Wunderground v.1.15,2015-02-27 23:18:00,
2015-02-27 15:24:00,66.5,56.0,29.68,SE,139,1.0,4.0,69,0.00,,,0.00,0,Wunderground v.1.15,2015-02-27 23:24:00,
2015-02-27 15:29:00,66.0,54.7,29.68,SE,124,1.0,1.0,67,0.00,,,0.00,0,Wunderground v.1.15,2015-02-27 23:29:00,
2015-02-27 15:34:00,65.8,54.9,29.68,SSE,147,4.0,7.0,68,0.00,,,0.00,0,Wunderground v.1.15,2015-02-27 23:34:00,
2015-02-27 15:40:00,65.6,55.2,29.67,SSE,149,3.0,3.0,69,0.00,,,0.00,0,Wunderground v.1.15,2015-02-27 23:40:00,
2015-02-27 15:46:00,65.2,55.2,29.67,SE,141,2.0,8.0,70,0.00,,,0.00,0,Wunderground v.1.15,2015-02-27 23:46:00,
2015-02-27 15:52:00,65.4,55.0,29.66,SE,131,2.0,4.0,69,0.00,,,0.00,0,Wunderground v.1.15,2015-02-27 23:52:00,
2015-02-27 15:58:00,65.5,54.7,29.66,SSE,165,4.0,7.0,68,0.00,,,0.00,0,Wunderground v.1.15,2015-02-27 23:58:00,
2015-02-27 16:07:00,65.0,54.6,29.66,South,184,0.0,11.0,69,0.00,,,0.00,0,Wunderground v.1.15,2015-02-28 00:07:00,
2015-02-27 16:12:00,65.1,54.3,29.65,SE,146,3.0,3.0,68,0.00,,,0.00,0,Wunderground v.1.15,2015-02-28 00:12:00,
2015-02-27 16:18:00,65.1,53.9,29.65,SSE,148,0.0,5.0,67,0.00,,,0.00,0,Wunderground v.1.15,2015-02-28 00:18:00,
2015-02-27 16:23:00,65.4,53.7,29.65,SSE,156,3.0,3.0,66,0.00,,,0.00,0,Wunderground v.1.15,2015-02-28 00:23:00,
2015-02-27 16:29:00,65.4,54.2,29.65,SE,144,6.0,6.0,67,0.00,,,0.00,0,Wunderground v.1.15,2015-02-28 00:29:00,
2015-02-27 16:35:00,65.2,54.8,29.64,SSE,155,4.0,8.0,69,0.00,,,0.00,0,Wunderground v.1.15,2015-02-28 00:35:00,
2015-02-27 16:40:00,64.9,54.9,29.64,SSE,158,2.0,2.0,70,0.00,,,0.00,0,Wunderground v.1.15,2015-02-28 00:40:00,
2015-02-27 16:46:00,64.5,54.9,29.64,SSE,161,5.0,6.0,71,0.00,,,0.00,0,Wunderground v.1.15,2015-02-28 00:46:00,
2015-02-27 16:52:00,63.8,54.2,29.63,SSE,158,2.0,4.0,71,0.00,,,0.00,0,Wunderground v.1.15,2015-02-28 00:52:00,
2015-02-27 16:58:00,63.4,55.3,29.63,SSE,153,4.0,5.0,75,0.00,,,0.00,0,Wunderground v.1.15,2015-02-28 00:58:00,
2015-02-27 17:03:00,63.3,55.6,29.63,SSE,154,2.0,9.0,76,0.00,,,0.00,0,Wunderground v.1.15,2015-02-28 01:03:00,
2015-02-27 17:08:00,63.1,55.4,29.63,SSE,167,3.0,9.0,76,0.00,,,0.00,0,Wunderground v.1.15,2015-02-28 01:08:00,
2015-02-27 17:14:00,63.0,55.3,29.62,SSE,152,5.0,8.0,76,0.00,,,0.00,0,Wunderground v.1.15,2015-02-28 01:14:00,
2015-02-27 17:20:00,62.9,55.2,29.62,SE,135,1.0,5.0,76,0.00,,,0.00,0,Wunderground v.1.15,2015-02-28 01:20:00,
2015-02-27 17:25:00,62.6,55.6,29.62,SSE,157,7.0,7.0,78,0.00,,,0.00,0,Wunderground v.1.15,2015-02-28 01:25:00,
2015-02-27 17:30:00,62.1,55.5,29.62,SE,142,3.0,4.0,79,0.00,,,0.00,0,Wunderground v.1.15,2015-02-28 01:30:00,
2015-02-27 17:35:00,61.7,55.5,29.62,SE,130,4.0,4.0,80,0.00,,,0.00,0,Wunderground v.1.15,2015-02-28 01:35:00,
2015-02-27 17:41:00,61.2,55.3,29.62,SE,126,6.0,6.0,81,0.00,,,0.00,0,Wunderground v.1.15,2015-02-28 01:41:00,
2015-02-27 17:46:00,60.9,55.0,29.62,ESE,114,2.0,6.0,81,0.00,,,0.00,0,Wunderground v.1.15,2015-02-28 01:46:00,
2015-02-27 17:51:00,60.6,55.1,29.62,SSE,152,3.0,3.0,82,0.00,,,0.00,0,Wunderground v.1.15,2015-02-28 01:51:00,
2015-02-27 17:57:00,60.2,55.0,29.62,SE,134,3.0,4.0,83,0.00,,,0.00,0,Wunderground v.1.15,2015-02-28 01:57:00,
2015-02-27 18:03:00,59.8,55.0,29.63,SSE,151,0.0,12.0,84,0.00,,,0.00,0,Wunderground v.1.15,2015-02-28 02:03:00,
2015-02-27 18:08:00,59.7,55.2,29.62,SE,126,3.0,12.0,85,0.00,,,0.00,0,Wunderground v.1.15,2015-02-28 02:08:00,
2015-02-27 18:14:00,59.5,55.0,29.63,SE,139,2.0,5.0,85,0.00,,,0.00,0,Wunderground v.1.15,2015-02-28 02:14:00,
2015-02-27 18:20:00,59.5,55.0,29.63,SE,146,1.0,6.0,85,0.00,,,0.00,0,Wunderground v.1.15,2015-02-28 02:20:00,
2015-02-27 18:26:00,59.4,54.6,29.63,SSE,153,3.0,6.0,84,0.00,,,0.00,0,Wunderground v.1.15,2015-02-28 02:26:00,
2015-02-27 18:32:00,59.4,54.6,29.64,SSW,212,1.0,1.0,84,0.00,,,0.00,0,Wunderground v.1.15,2015-02-28 02:32:00,
2015-02-27 18:37:00,59.3,54.1,29.64,SSE,152,2.0,2.0,83,0.00,,,0.00,0,Wunderground v.1.15,2015-02-28 02:37:00,
2015-02-27 18:42:00,59.2,54.4,29.64,SE,130,0.0,0.0,84,0.00,,,0.00,0,Wunderground v.1.15,2015-02-28 02:42:00,
2015-02-27 18:48:00,59.2,54.0,29.64,East,101,0.0,2.0,83,0.00,,,0.00,0,Wunderground v.1.15,2015-02-28 02:48:00,
2015-02-27 18:53:00,59.1,53.6,29.64,East,101,0.0,0.0,82,0.00,,,0.00,0,Wunderground v.1.15,2015-02-28 02:53:00,
2015-02-27 18:58:00,59.0,52.8,29.65,SE,140,0.0,1.0,80,0.00,,,0.00,0,Wunderground v.1.15,2015-02-28 02:58:00,